MUC | München Airways

 METAR UND TAF INFORMATION

METAR FOR LEAL
ADDS - METARS form results

(0319 UTC 24 January 2019)
Data provider http://aviationweather.gov/metar/data/
 
METAR text: LEAL 240300Z 29010KT 230V320 9999 BKN060 17/04 Q1004 NOSIG
Conditions at: LEAL (ALICANTE/EL ALTE, ES) observed 0300 UTC 24 January 2019
Temperature: 17.0°C (63°F)
Dewpoint: 4.0°C (39°F) [RH = 42%]
Pressure (altimeter): 29.65 inches Hg (1004.0 mb)
Winds: from the WNW (290 degrees) at 12 MPH (10 knots; 5.1 m/s)
Visibility: 6 or more miles (10+ km)
Ceiling: 6000 feet AGL
Clouds: broken clouds at 6000 feet AGL
Weather: no significant weather observed at this time

METAR text: LEAL 240230Z 26004KT 200V350 9999 BKN060 17/04 Q1003 NOSIG
Conditions at: LEAL (ALICANTE/EL ALTE, ES) observed 0230 UTC 24 January 2019
Temperature: 17.0°C (63°F)
Dewpoint: 4.0°C (39°F) [RH = 42%]
Pressure (altimeter): 29.62 inches Hg (1003.0 mb)
Winds: from the W (260 degrees) at 5 MPH (4 knots; 2.1 m/s)
Visibility: 6 or more miles (10+ km)
Ceiling: 6000 feet AGL
Clouds: broken clouds at 6000 feet AGL
Weather: no significant weather observed at this time

Forecast for: AMD
Text: TAF AMD LEAL 240235Z 2402/2424 29015KT 9999 FEW018 TX18/2413Z TN11/2406Z
Forecast period: 0200 UTC 24 January 2019 to 0000 UTC 25 January 2019
Forecast type: FROM: standard forecast or significant change
Winds: from the WNW (290 degrees) at 17 MPH (15 knots; 7.7 m/s)
Visibility: 6 or more miles 10+ km)
Ceiling: at least 12,000 feet AGL
Clouds: few clouds at 1800 feet AGL
Weather: no significant weather forecast for this period
Text: TEMPO 2402/2420 26007KT
Forecast period: 0200 to 2000 UTC 24 January 2019
Forecast type: TEMPORARY: The following changes expected for less than half the time period
Winds: from the W (260 degrees) at 8 MPH (7 knots; 3.6 m/s)
Visibility: missing
Ceiling: unknown
Clouds: missing
Weather: no significant weather forecast for this period
Text: TEMPO 2418/2424 28007KT
Forecast period: 1800 UTC 24 January 2019 to 0000 UTC 25 January 2019
Forecast type: TEMPORARY: The following changes expected for less than half the time period
Winds: from the W (280 degrees) at 8 MPH (7 knots; 3.6 m/s)
Visibility: missing
Ceiling: unknown
Clouds: missing
Weather: no significant weather forecast for this period

 FLUGHAFENKARTE

 RUNWAY INFORMATION
Runway 10 Runway length 9842 ft Runway width 148 ft
Runway elevation 142 ft Runway displaced threshold 0 ft Runway heading 100
Runway 28 Runway length 9842 ft Runway width 148 ft
Runway elevation 44 ft Runway displaced threshold 0 ft Runway heading 280

 AIRPORT FREQUENCIES
Type APP Name APP Frequency 118.8 MHZ
Type ATIS Name ATIS Frequency 113.8 MHZ
Type GND Name GND Frequency 121.7 MHZ
Type TWR Name TWR Frequency 118.15 MHZ

 AIRPORT NEAR NAVIGATION AIDS
Type VOR-DME Name Alicante Frequency 113800 KHZ
Type VOR-DME Name Alicante Frequency 114650 KHZ